Time;durP1;ratioP1;P1;durP2;ratioP2;P2;SDS_P1;SDS_P2;PMS_P1;PMS_P2;Temp;Humidity;BMP_temperature;BMP_pressure;BME280_temperature;BME280_humidity;BME280_pressure;Samples;Min_cycle;Max_cycle;Signal;HPM_P1;HPM_P2
2021/09/24 00:00:04;;;;;;;19.15;4.82;;;12.30;99.90;;;;;;5012571;28;20076;-58
2021/09/24 00:02:30;;;;;;;18.45;4.32;;;12.30;99.90;;;;;;5012894;28;20022;-58
2021/09/24 00:04:55;;;;;;;21.98;3.83;;;12.20;99.90;;;;;;5013672;28;20033;-53
2021/09/24 00:07:21;;;;;;;17.10;3.17;;;12.20;99.90;;;;;;5013535;28;20505;-59
2021/09/24 00:09:46;;;;;;;18.05;3.47;;;12.20;99.90;;;;;;5013503;28;20033;-56
2021/09/24 00:12:12;;;;;;;14.15;3.03;;;12.10;99.90;;;;;;5013483;28;20038;-56
2021/09/24 00:14:37;;;;;;;9.55;2.53;;;12.10;99.90;;;;;;5022098;28;20025;-59
2021/09/24 00:17:03;;;;;;;14.23;2.92;;;12.00;99.90;;;;;;5033124;28;20108;-56
2021/09/24 00:19:29;;;;;;;18.83;3.40;;;12.00;99.90;;;;;;5033307;28;20036;-58
2021/09/24 00:21:54;;;;;;;16.48;3.25;;;12.10;99.90;;;;;;5033063;28;20380;-55
2021/09/24 00:24:20;;;;;;;12.60;3.22;;;12.10;99.90;;;;;;5033246;28;20029;-55
2021/09/24 00:26:45;;;;;;;16.70;2.95;;;12.10;99.90;;;;;;5033046;28;20071;-56
2021/09/24 00:29:11;;;;;;;22.20;3.83;;;12.20;99.90;;;;;;5031629;28;20021;-56
2021/09/24 00:31:36;;;;;;;17.30;3.92;;;12.10;99.90;;;;;;5033012;28;20036;-56
2021/09/24 00:34:02;;;;;;;19.73;3.15;;;12.10;99.90;;;;;;5032700;28;20022;-58
2021/09/24 00:36:27;;;;;;;20.90;3.67;;;12.10;99.90;;;;;;5033083;28;20021;-56
2021/09/24 00:38:53;;;;;;;19.85;3.53;;;12.00;99.90;;;;;;5032759;28;20133;-58
2021/09/24 00:41:18;;;;;;;9.98;2.65;;;12.00;99.90;;;;;;5032813;28;20032;-56
2021/09/24 00:43:44;;;;;;;15.35;2.90;;;12.00;99.90;;;;;;5032398;28;20131;-58
2021/09/24 00:46:09;;;;;;;14.18;2.80;;;12.10;99.90;;;;;;5028494;28;20393;-58
2021/09/24 00:48:35;;;;;;;15.50;3.60;;;12.20;99.90;;;;;;5032321;28;20036;-57
2021/09/24 00:51:00;;;;;;;19.48;3.50;;;12.30;99.90;;;;;;5032635;28;20124;-59
2021/09/24 00:53:26;;;;;;;24.30;4.35;;;12.30;99.90;;;;;;5032574;28;20105;-57
2021/09/24 00:55:52;;;;;;;13.93;3.40;;;12.40;99.90;;;;;;5032424;28;20017;-57
2021/09/24 00:58:17;;;;;;;19.35;2.95;;;12.50;99.90;;;;;;5032442;28;20112;-53
2021/09/24 01:00:43;;;;;;;16.45;3.45;;;12.50;99.90;;;;;;5031361;28;20026;-57
2021/09/24 01:03:09;;;;;;;16.23;2.97;;;12.60;99.90;;;;;;5032369;28;20495;-58
2021/09/24 01:05:34;;;;;;;16.00;3.33;;;12.60;99.90;;;;;;5032434;28;20104;-59
2021/09/24 01:08:01;;;;;;;14.73;2.92;;;12.60;99.90;;;;;;5032344;28;20068;-55
2021/09/24 01:10:27;;;;;;;11.75;3.00;;;12.70;99.90;;;;;;5032362;28;20038;-55
2021/09/24 01:12:52;;;;;;;16.02;2.50;;;12.70;99.90;;;;;;5033677;28;20021;-57
2021/09/24 01:15:19;;;;;;;12.45;2.90;;;12.70;99.90;;;;;;5022083;28;20052;-58
2021/09/24 01:17:45;;;;;;;13.90;3.70;;;12.70;99.90;;;;;;5019209;28;20104;-58
2021/09/24 01:20:13;;;;;;;18.75;4.72;;;12.80;99.90;;;;;;5019272;28;20017;-58
2021/09/24 01:22:39;;;;;;;17.27;3.55;;;12.80;99.90;;;;;;5019168;28;20489;-59
2021/09/24 01:25:07;;;;;;;25.65;3.22;;;12.80;99.90;;;;;;5019129;28;20034;-58
2021/09/24 01:27:33;;;;;;;12.38;2.50;;;12.80;99.90;;;;;;5018847;28;20034;-54
2021/09/24 01:29:59;;;;;;;14.48;3.40;;;12.90;99.90;;;;;;5017666;28;20037;-57
2021/09/24 01:32:25;;;;;;;16.15;3.00;;;12.90;99.90;;;;;;5018988;28;20037;-59
2021/09/24 01:34:50;;;;;;;17.23;3.60;;;12.90;99.90;;;;;;5018960;28;20362;-55
2021/09/24 01:37:16;;;;;;;16.90;3.60;;;12.90;99.90;;;;;;5019035;28;20037;-58
2021/09/24 01:39:42;;;;;;;19.50;3.78;;;12.90;99.90;;;;;;5019187;28;20022;-59
2021/09/24 01:42:08;;;;;;;14.85;3.22;;;12.90;99.90;;;;;;5018724;28;20076;-56
2021/09/24 01:44:35;;;;;;;15.95;3.38;;;12.90;99.90;;;;;;5017650;28;20026;-55
2021/09/24 01:47:00;;;;;;;20.25;3.90;;;12.90;99.90;;;;;;5028745;28;20051;-56
2021/09/24 01:49:26;;;;;;;17.10;3.78;;;12.90;99.90;;;;;;5038724;28;20033;-56
2021/09/24 01:51:51;;;;;;;19.48;3.50;;;12.90;99.90;;;;;;5038640;28;20472;-58
2021/09/24 01:54:20;;;;;;;20.58;4.22;;;12.90;99.90;;;;;;5038423;28;20037;-59
2021/09/24 01:56:45;;;;;;;15.73;3.92;;;12.90;99.90;;;;;;5038558;28;20026;-53
2021/09/24 01:59:11;;;;;;;20.92;4.10;;;12.90;99.90;;;;;;5037263;28;20041;-59
2021/09/24 02:01:36;;;;;;;15.80;2.92;;;12.90;99.90;;;;;;5038851;28;20029;-58
2021/09/24 02:04:03;;;;;;;15.10;2.67;;;12.90;99.90;;;;;;5038600;28;20484;-52
2021/09/24 02:06:29;;;;;;;21.50;3.17;;;12.90;99.90;;;;;;5038570;28;20045;-58
2021/09/24 02:08:54;;;;;;;16.92;3.55;;;12.90;99.90;;;;;;5038498;28;20067;-55
2021/09/24 02:11:20;;;;;;;26.00;4.18;;;12.90;99.90;;;;;;5038310;28;20216;-58
2021/09/24 02:13:45;;;;;;;15.73;3.22;;;12.90;99.90;;;;;;5035263;28;20378;-57
2021/09/24 02:16:12;;;;;;;15.63;3.15;;;12.90;99.90;;;;;;5017340;28;20397;-57
2021/09/24 02:18:38;;;;;;;15.07;2.72;;;12.90;99.90;;;;;;5018719;28;20062;-58
2021/09/24 02:21:04;;;;;;;22.40;3.08;;;12.90;99.90;;;;;;5018583;28;20460;-55
2021/09/24 02:23:30;;;;;;;20.52;3.38;;;12.90;99.90;;;;;;5018595;28;20030;-55
2021/09/24 02:25:55;;;;;;;21.60;3.67;;;12.90;99.90;;;;;;5015107;28;20090;-55
2021/09/24 02:28:21;;;;;;;11.95;2.95;;;12.90;99.90;;;;;;5015137;28;20025;-58
2021/09/24 02:30:46;;;;;;;20.58;3.30;;;12.80;99.90;;;;;;5014186;28;20545;-58
2021/09/24 02:33:12;;;;;;;23.02;4.55;;;12.90;99.90;;;;;;5015598;28;20117;-57
2021/09/24 02:35:37;;;;;;;12.05;2.78;;;12.80;99.90;;;;;;5015414;28;20033;-58
2021/09/24 02:38:03;;;;;;;17.35;3.65;;;12.80;99.90;;;;;;5015185;28;20421;-55
2021/09/24 02:40:28;;;;;;;16.27;2.90;;;12.90;99.90;;;;;;5015220;28;20378;-58
2021/09/24 02:42:54;;;;;;;15.85;3.10;;;12.90;99.90;;;;;;5015124;28;20492;-58
2021/09/24 02:45:20;;;;;;;13.10;3.05;;;12.90;99.90;;;;;;5013896;28;20113;-56
2021/09/24 02:47:45;;;;;;;20.77;3.13;;;12.90;99.90;;;;;;5031064;28;20116;-57
2021/09/24 02:50:11;;;;;;;14.65;3.08;;;12.80;99.90;;;;;;5034907;28;20025;-57
2021/09/24 02:52:38;;;;;;;18.17;3.70;;;12.80;99.90;;;;;;5035045;28;20030;-55
2021/09/24 02:55:05;;;;;;;17.95;3.60;;;12.90;99.90;;;;;;5034538;28;20025;-56
2021/09/24 02:57:30;;;;;;;16.25;2.78;;;12.80;99.90;;;;;;5034914;28;20326;-56
2021/09/24 02:59:56;;;;;;;12.23;2.38;;;12.90;99.90;;;;;;5033394;28;20029;-59
2021/09/24 03:02:21;;;;;;;16.42;2.83;;;12.90;99.90;;;;;;5034696;28;20354;-58
2021/09/24 03:04:47;;;;;;;15.35;3.50;;;12.80;99.90;;;;;;5034520;28;20080;-57
2021/09/24 03:07:12;;;;;;;13.65;2.55;;;12.90;99.90;;;;;;5034486;28;20096;-55
2021/09/24 03:09:38;;;;;;;11.05;2.97;;;12.80;99.90;;;;;;5034408;28;20067;-57
2021/09/24 03:12:05;;;;;;;11.88;3.00;;;12.90;99.90;;;;;;5034449;28;20026;-58
2021/09/24 03:14:31;;;;;;;10.80;2.67;;;12.80;99.90;;;;;;5023902;28;20022;-53
2021/09/24 03:16:57;;;;;;;13.88;3.22;;;12.80;99.90;;;;;;5014780;28;20030;-56
2021/09/24 03:19:22;;;;;;;17.63;3.60;;;12.80;99.90;;;;;;5014471;28;20036;-57
2021/09/24 03:21:49;;;;;;;15.73;4.03;;;12.80;99.90;;;;;;5014666;28;20065;-58
2021/09/24 03:24:15;;;;;;;12.23;2.55;;;12.80;99.90;;;;;;5014074;28;20061;-55
2021/09/24 03:26:41;;;;;;;11.50;2.90;;;12.80;99.90;;;;;;5014214;28;20091;-57
2021/09/24 03:29:08;;;;;;;12.38;2.63;;;12.80;99.90;;;;;;5012794;28;20030;-59
2021/09/24 03:31:36;;;;;;;24.35;3.47;;;12.80;99.90;;;;;;5014436;28;20053;-55
2021/09/24 03:34:01;;;;;;;16.85;3.45;;;12.80;99.90;;;;;;5012964;28;20022;-56
2021/09/24 03:36:27;;;;;;;12.18;2.70;;;12.80;99.90;;;;;;5013197;28;20482;-56
2021/09/24 03:38:52;;;;;;;16.55;3.10;;;12.80;99.90;;;;;;5014022;28;20038;-56
2021/09/24 03:41:18;;;;;;;14.50;3.40;;;12.80;99.90;;;;;;5014148;28;20033;-58
2021/09/24 03:43:43;;;;;;;19.13;3.53;;;12.80;99.90;;;;;;5013878;28;20026;-58
2021/09/24 03:46:09;;;;;;;12.57;2.83;;;12.80;99.90;;;;;;5015668;28;20108;-55
2021/09/24 03:48:35;;;;;;;18.15;3.05;;;12.70;99.90;;;;;;5033733;28;20033;-57
2021/09/24 03:51:00;;;;;;;15.43;2.85;;;12.80;99.90;;;;;;5033783;28;20383;-55
2021/09/24 03:53:26;;;;;;;15.75;3.38;;;12.80;99.90;;;;;;5033500;28;20030;-58
2021/09/24 03:55:53;;;;;;;13.52;2.70;;;12.80;99.90;;;;;;5033703;28;20101;-57
2021/09/24 03:58:23;;;;;;;15.90;2.97;;;12.70;99.90;;;;;;5033453;28;20036;-57
2021/09/24 04:00:50;;;;;;;13.90;2.67;;;12.70;99.90;;;;;;5030993;28;20068;-56
2021/09/24 04:03:16;;;;;;;14.23;3.35;;;12.70;99.90;;;;;;5033382;28;20032;-59
2021/09/24 04:05:41;;;;;;;13.75;3.97;;;12.70;99.90;;;;;;5033368;28;20113;-58
2021/09/24 04:08:07;;;;;;;15.05;2.67;;;12.70;99.90;;;;;;5033206;28;20084;-59
2021/09/24 04:10:33;;;;;;;10.75;2.92;;;12.70;99.90;;;;;;5032964;28;20034;-54
2021/09/24 04:12:58;;;;;;;11.77;2.55;;;12.80;99.90;;;;;;5033396;28;20041;-57
2021/09/24 04:15:24;;;;;;;10.50;3.05;;;12.80;99.90;;;;;;5024942;28;20022;-59
2021/09/24 04:17:49;;;;;;;21.73;3.13;;;12.70;99.90;;;;;;5033162;28;20064;-58
2021/09/24 04:20:15;;;;;;;15.80;3.40;;;12.80;99.90;;;;;;5033099;28;20043;-59
2021/09/24 04:22:40;;;;;;;15.88;2.78;;;12.80;99.90;;;;;;5032953;28;20052;-56
2021/09/24 04:25:07;;;;;;;12.15;2.42;;;12.80;99.90;;;;;;5032951;28;20055;-59
2021/09/24 04:27:33;;;;;;;18.38;2.53;;;12.80;99.90;;;;;;5033115;28;20036;-59
2021/09/24 04:29:58;;;;;;;13.55;2.72;;;12.80;99.90;;;;;;5031482;28;20037;-58
2021/09/24 04:32:24;;;;;;;10.40;2.30;;;12.80;99.90;;;;;;5027128;28;20451;-59
2021/09/24 04:34:49;;;;;;;14.57;3.85;;;12.80;99.90;;;;;;5013042;28;20377;-57
2021/09/24 04:37:15;;;;;;;12.00;2.65;;;12.80;99.90;;;;;;5013094;28;20161;-59
2021/09/24 04:39:40;;;;;;;12.07;2.42;;;12.80;99.90;;;;;;5022713;28;20029;-58
2021/09/24 04:42:06;;;;;;;17.25;2.58;;;12.80;99.90;;;;;;5032796;28;20033;-58
2021/09/24 04:44:32;;;;;;;22.65;3.78;;;12.80;99.90;;;;;;5029927;28;20034;-59
2021/09/24 04:46:58;;;;;;;13.73;2.92;;;12.80;99.90;;;;;;5028354;28;20037;-58
2021/09/24 04:49:24;;;;;;;15.65;2.92;;;12.90;99.90;;;;;;5031990;28;20377;-59
2021/09/24 04:51:49;;;;;;;15.68;2.85;;;12.80;99.90;;;;;;5032351;28;20030;-56
2021/09/24 04:54:15;;;;;;;21.58;3.00;;;12.80;99.90;;;;;;5029645;28;20116;-58
2021/09/24 04:56:40;;;;;;;18.27;3.70;;;12.80;99.90;;;;;;5022364;28;20495;-57
2021/09/24 04:59:06;;;;;;;17.60;3.15;;;12.90;99.90;;;;;;5028101;28;20043;-57
2021/09/24 05:01:31;;;;;;;15.85;3.30;;;12.90;99.90;;;;;;5032690;28;20505;-53
2021/09/24 05:03:57;;;;;;;14.82;2.97;;;12.90;99.90;;;;;;5032583;28;20036;-59
2021/09/24 05:06:22;;;;;;;20.33;3.42;;;12.90;99.90;;;;;;5032160;28;20053;-58
2021/09/24 05:08:48;;;;;;;20.65;3.80;;;12.90;99.90;;;;;;5032580;28;20504;-59
2021/09/24 05:11:13;;;;;;;14.57;3.42;;;12.90;99.90;;;;;;5032502;28;20041;-59
2021/09/24 05:13:39;;;;;;;15.65;2.75;;;12.90;99.90;;;;;;5032645;28;20037;-59
2021/09/24 05:16:05;;;;;;;14.80;2.65;;;12.90;99.90;;;;;;5031215;28;20069;-58
2021/09/24 05:18:30;;;;;;;15.27;2.88;;;12.90;99.90;;;;;;5032587;28;20034;-55
2021/09/24 05:20:56;;;;;;;15.18;3.85;;;12.90;99.90;;;;;;5032560;28;20044;-59
2021/09/24 05:23:21;;;;;;;17.38;3.15;;;12.90;99.90;;;;;;5032494;28;20033;-57
2021/09/24 05:25:47;;;;;;;12.65;2.47;;;12.90;99.90;;;;;;5032278;28;20031;-59
2021/09/24 05:28:12;;;;;;;21.25;3.10;;;12.90;99.90;;;;;;5032476;28;20068;-59
2021/09/24 05:30:38;;;;;;;13.55;2.92;;;12.90;99.90;;;;;;5031122;28;20034;-60
2021/09/24 05:33:03;;;;;;;13.63;3.13;;;12.90;99.90;;;;;;5032446;28;20104;-57
2021/09/24 05:35:29;;;;;;;16.27;3.15;;;12.90;99.90;;;;;;5032247;28;20025;-54
2021/09/24 05:37:55;;;;;;;16.55;2.88;;;12.90;99.90;;;;;;5032390;28;20109;-59
2021/09/24 05:40:21;;;;;;;20.25;3.40;;;13.00;99.90;;;;;;5032286;28;20022;-56
2021/09/24 05:42:46;;;;;;;13.88;3.13;;;13.00;99.90;;;;;;5032536;28;20044;-59
2021/09/24 05:45:14;;;;;;;16.17;3.42;;;13.00;99.90;;;;;;5031035;28;20029;-59
2021/09/24 05:47:41;;;;;;;17.90;3.22;;;13.00;99.90;;;;;;5028726;28;20033;-58
2021/09/24 05:50:12;;;;;;;15.07;3.22;;;13.00;99.90;;;;;;5032333;28;20029;-57
2021/09/24 05:52:47;;;;;;;16.88;3.00;;;13.10;99.90;;;;;;5032286;28;20022;-60
2021/09/24 05:55:14;;;;;;;16.98;3.15;;;13.10;99.90;;;;;;5032228;28;20052;-61
2021/09/24 05:57:40;;;;;;;20.83;3.67;;;13.20;99.90;;;;;;5032409;28;20026;-57
2021/09/24 06:00:08;;;;;;;15.82;2.67;;;13.30;99.90;;;;;;5031944;28;20028;-60
2021/09/24 06:02:33;;;;;;;18.40;3.20;;;13.30;99.90;;;;;;5035739;28;20325;-60
2021/09/24 06:04:59;;;;;;;17.10;3.25;;;13.40;99.90;;;;;;5035817;28;20108;-59
2021/09/24 06:07:26;;;;;;;13.50;3.78;;;13.70;99.90;;;;;;5013697;28;20045;-55
2021/09/24 06:09:52;;;;;;;12.15;2.58;;;13.90;99.90;;;;;;5035922;28;20026;-59
2021/09/24 06:12:17;;;;;;;13.18;2.97;;;14.30;99.90;;;;;;5035839;28;20434;-59
2021/09/24 06:14:43;;;;;;;13.38;3.30;;;14.80;99.90;;;;;;5024187;28;20057;-59
2021/09/24 06:17:11;;;;;;;14.57;3.15;;;15.00;99.90;;;;;;5016017;28;20057;-59
2021/09/24 06:19:37;;;;;;;16.95;3.22;;;15.20;99.90;;;;;;5015782;28;20034;-56
2021/09/24 06:22:03;;;;;;;13.27;2.55;;;15.60;99.90;;;;;;5015973;28;20057;-60
2021/09/24 06:24:29;;;;;;;18.95;3.50;;;15.90;99.90;;;;;;5015737;28;20197;-58
2021/09/24 06:26:54;;;;;;;17.35;3.50;;;16.20;99.90;;;;;;5015733;28;20042;-56
2021/09/24 06:29:20;;;;;;;13.82;2.65;;;16.50;99.90;;;;;;5014819;28;20425;-59
2021/09/24 06:31:46;;;;;;;14.75;3.15;;;16.70;99.90;;;;;;5014268;28;20022;-59
2021/09/24 06:34:11;;;;;;;8.55;2.28;;;16.90;99.90;;;;;;5015374;28;20037;-58
2021/09/24 06:36:37;;;;;;;11.40;2.08;;;17.20;99.80;;;;;;5015392;28;20056;-59
2021/09/24 06:39:03;;;;;;;10.55;2.78;;;17.30;98.90;;;;;;5015632;28;20022;-56
2021/09/24 06:41:29;;;;;;;10.20;2.85;;;17.70;95.70;;;;;;5015631;28;20385;-57
2021/09/24 06:43:55;;;;;;;12.40;2.47;;;18.30;95.40;;;;;;5015227;28;20037;-59
2021/09/24 06:46:20;;;;;;;8.98;2.65;;;18.50;92.30;;;;;;5018989;28;20538;-56
2021/09/24 06:48:46;;;;;;;15.95;3.25;;;18.30;93.30;;;;;;5034854;28;20489;-60
2021/09/24 06:51:11;;;;;;;9.60;2.65;;;18.00;93.70;;;;;;5034955;28;20029;-59
2021/09/24 06:53:37;;;;;;;12.07;3.08;;;17.90;94.10;;;;;;5035069;28;20179;-59
2021/09/24 06:56:03;;;;;;;12.18;2.85;;;17.80;93.50;;;;;;5034916;28;20370;-59
2021/09/24 06:58:29;;;;;;;12.10;2.65;;;17.80;93.10;;;;;;5035026;28;20022;-60
2021/09/24 07:00:54;;;;;;;9.57;2.55;;;18.30;92.00;;;;;;5033931;28;20364;-56
2021/09/24 07:03:20;;;;;;;12.57;4.03;;;18.90;89.10;;;;;;5034683;28;20026;-59
2021/09/24 07:05:45;;;;;;;15.90;2.70;;;19.30;84.90;;;;;;5034559;28;20060;-60
2021/09/24 07:08:11;;;;;;;9.20;2.72;;;19.50;84.30;;;;;;5034880;28;20029;-59
2021/09/24 07:10:36;;;;;;;11.27;2.95;;;19.90;82.80;;;;;;5034354;28;20025;-59
2021/09/24 07:13:02;;;;;;;13.18;3.25;;;20.60;79.10;;;;;;5034766;28;20441;-60
2021/09/24 07:15:27;;;;;;;15.50;3.55;;;20.90;74.40;;;;;;5016719;28;20049;-56
2021/09/24 07:17:53;;;;;;;14.52;3.42;;;21.00;62.60;;;;;;5014786;28;20033;-59
2021/09/24 07:20:18;;;;;;;16.42;3.55;;;20.90;62.50;;;;;;5014658;28;20029;-59
2021/09/24 07:22:44;;;;;;;13.50;2.92;;;21.10;68.00;;;;;;5015015;28;20034;-59
2021/09/24 07:25:10;;;;;;;11.75;3.28;;;21.20;62.60;;;;;;5014718;28;20080;-59
2021/09/24 07:27:36;;;;;;;12.23;2.60;;;21.60;59.60;;;;;;5014554;28;20434;-59
2021/09/24 07:30:02;;;;;;;11.57;2.83;;;21.70;64.00;;;;;;5013753;28;20064;-57
2021/09/24 07:32:28;;;;;;;9.60;3.10;;;21.50;63.00;;;;;;5014338;28;20034;-58
2021/09/24 07:34:53;;;;;;;8.90;2.75;;;21.20;60.00;;;;;;5014397;28;20534;-58
2021/09/24 07:37:19;;;;;;;13.20;3.67;;;21.30;63.90;;;;;;5014407;28;20025;-60
2021/09/24 07:39:44;;;;;;;17.25;3.45;;;21.10;62.50;;;;;;5014518;28;20068;-56
2021/09/24 07:42:10;;;;;;;12.40;3.47;;;20.60;63.90;;;;;;5014294;28;20041;-58
2021/09/24 07:44:36;;;;;;;9.07;2.60;;;20.50;64.10;;;;;;5013396;28;20030;-56
2021/09/24 07:47:02;;;;;;;6.60;2.63;;;20.70;60.70;;;;;;5024136;28;20064;-58
2021/09/24 07:49:27;;;;;;;12.38;3.35;;;20.90;63.00;;;;;;5033833;28;20427;-56
2021/09/24 07:51:53;;;;;;;14.38;3.05;;;21.10;62.10;;;;;;5033968;28;20029;-56
2021/09/24 07:54:21;;;;;;;13.05;2.92;;;21.50;58.00;;;;;;5033932;28;20380;-58
2021/09/24 07:56:48;;;;;;;11.73;3.08;;;22.10;57.90;;;;;;5033781;28;20049;-57
2021/09/24 07:59:13;;;;;;;8.60;2.45;;;22.60;57.30;;;;;;5033028;28;20953;-55
2021/09/24 08:01:39;;;;;;;7.10;2.13;;;22.70;55.90;;;;;;5033545;28;20108;-58
2021/09/24 08:04:04;;;;;;;12.63;3.15;;;22.70;53.40;;;;;;5032426;28;20492;-55
2021/09/24 08:06:30;;;;;;;11.40;3.70;;;22.90;53.30;;;;;;5033371;28;20060;-57
2021/09/24 08:08:55;;;;;;;12.82;3.55;;;22.60;47.30;;;;;;5033723;28;20033;-58
2021/09/24 08:11:21;;;;;;;11.43;2.92;;;22.70;51.00;;;;;;5033481;28;20021;-58
2021/09/24 08:13:46;;;;;;;8.85;3.03;;;22.80;51.00;;;;;;5030331;28;20022;-57
2021/09/24 08:16:12;;;;;;;7.13;2.28;;;22.70;51.30;;;;;;5012680;28;20037;-58
2021/09/24 08:18:38;;;;;;;7.93;2.22;;;22.90;51.80;;;;;;5013669;28;20080;-58
2021/09/24 08:21:04;;;;;;;9.82;2.95;;;23.00;44.00;;;;;;5013513;28;20033;-58
2021/09/24 08:23:30;;;;;;;13.38;3.25;;;22.80;48.70;;;;;;5013030;28;20422;-58
2021/09/24 08:25:55;;;;;;;8.30;2.40;;;22.40;50.10;;;;;;5013495;28;20065;-58
2021/09/24 08:28:21;;;;;;;10.07;2.80;;;22.10;51.50;;;;;;5013504;28;20038;-58
2021/09/24 08:30:47;;;;;;;11.25;3.00;;;21.90;51.60;;;;;;5012443;28;20037;-55
2021/09/24 08:33:14;;;;;;;10.60;3.33;;;21.90;52.20;;;;;;5013318;28;20033;-58
2021/09/24 08:35:41;;;;;;;15.52;3.65;;;22.00;52.60;;;;;;5013269;28;20018;-56
2021/09/24 08:38:06;;;;;;;10.93;2.78;;;22.00;52.00;;;;;;5013285;28;20097;-58
2021/09/24 08:40:32;;;;;;;18.17;3.33;;;21.90;51.60;;;;;;5013453;28;20549;-54
2021/09/24 08:42:59;;;;;;;8.45;2.72;;;21.60;47.00;;;;;;5013328;28;20076;-55
2021/09/24 08:45:28;;;;;;;7.88;2.38;;;21.60;51.90;;;;;;5012391;28;20359;-58
2021/09/24 08:47:55;;;;;;;9.05;2.58;;;21.60;52.00;;;;;;5030070;28;20033;-58
2021/09/24 08:50:21;;;;;;;13.70;3.33;;;21.70;52.40;;;;;;5032934;28;20021;-57
2021/09/24 08:52:46;;;;;;;11.88;2.88;;;21.50;51.70;;;;;;5032801;28;20349;-58
2021/09/24 08:55:12;;;;;;;7.93;2.67;;;21.60;51.80;;;;;;5033031;28;20425;-58
2021/09/24 08:57:41;;;;;;;7.97;2.75;;;21.60;52.20;;;;;;5032782;28;20487;-58
2021/09/24 09:00:08;;;;;;;6.80;2.35;;;21.70;50.40;;;;;;5031880;28;20025;-57
2021/09/24 09:02:54;;;;;;;10.60;3.08;;;21.60;50.50;;;;;;5032661;28;20041;-58
2021/09/24 09:05:21;;;;;;;5.63;2.45;;;21.30;47.40;;;;;;5032873;28;20037;-58
2021/09/24 09:07:47;;;;;;;8.85;2.55;;;21.40;50.10;;;;;;5032673;28;20501;-58
2021/09/24 09:10:13;;;;;;;13.35;2.97;;;21.50;49.80;;;;;;5032831;28;20063;-54
2021/09/24 09:12:39;;;;;;;10.52;3.58;;;21.40;48.30;;;;;;5032507;28;20025;-58
2021/09/24 09:15:14;;;;;;;9.82;2.70;;;21.40;48.50;;;;;;5017933;28;20347;-58
2021/09/24 09:17:47;;;;;;;8.38;2.60;;;21.40;48.20;;;;;;5012885;28;20026;-57
2021/09/24 09:20:17;;;;;;;7.13;2.53;;;21.40;45.90;;;;;;5013042;28;20034;-58
2021/09/24 09:22:46;;;;;;;10.05;3.05;;;21.50;48.20;;;;;;5012635;28;20036;-58
2021/09/24 09:25:31;;;;;;;10.20;2.22;;;21.50;47.20;;;;;;5012745;28;20421;-58
2021/09/24 09:27:59;;;;;;;10.77;2.90;;;21.60;46.80;;;;;;5012822;28;20025;-58
2021/09/24 09:30:26;;;;;;;12.10;3.08;;;21.70;46.60;;;;;;5012006;28;20044;-58
2021/09/24 09:33:14;;;;;;;13.63;3.30;;;21.70;45.80;;;;;;5012595;28;20022;-58
2021/09/24 09:35:47;;;;;;;12.38;2.97;;;21.50;41.80;;;;;;5016236;28;20477;-57
2021/09/24 09:38:17;;;;;;;10.43;3.03;;;21.30;44.20;;;;;;5016554;28;20033;-54
2021/09/24 09:40:44;;;;;;;11.55;2.92;;;21.30;44.10;;;;;;5016696;28;20026;-56
2021/09/24 09:43:09;;;;;;;11.52;2.67;;;21.00;42.90;;;;;;5016607;28;20026;-55
2021/09/24 09:45:37;;;;;;;8.77;2.75;;;20.80;43.10;;;;;;5015618;28;20022;-57
2021/09/24 09:48:11;;;;;;;13.98;2.83;;;20.80;44.40;;;;;;5033425;28;20045;-58
2021/09/24 09:50:38;;;;;;;13.90;2.85;;;20.80;44.80;;;;;;5036268;28;20533;-58
2021/09/24 09:53:12;;;;;;;12.98;2.90;;;20.90;44.50;;;;;;5035942;28;20044;-57
2021/09/24 09:55:41;;;;;;;8.63;2.80;;;20.90;44.50;;;;;;5036066;28;20043;-58
2021/09/24 09:58:10;;;;;;;14.10;3.00;;;20.80;44.00;;;;;;5036220;28;20030;-58
2021/09/24 10:00:52;;;;;;;12.35;2.55;;;20.80;45.10;;;;;;5035119;28;20032;-58
2021/09/24 10:03:46;;;;;;;11.05;3.17;;;20.90;44.50;;;;;;5035934;28;20017;-56
2021/09/24 10:06:19;;;;;;;11.68;3.42;;;21.00;43.80;;;;;;5035439;28;20077;-58
2021/09/24 10:08:45;;;;;;;10.55;3.08;;;21.00;42.70;;;;;;5035689;28;20036;-58
2021/09/24 10:11:18;;;;;;;10.10;2.90;;;21.10;43.10;;;;;;5035810;28;20109;-58
2021/09/24 10:13:54;;;;;;;12.57;2.72;;;21.20;42.90;;;;;;5032732;28;20030;-57
2021/09/24 10:16:23;;;;;;;11.77;2.92;;;21.20;43.20;;;;;;5016065;28;20022;-58
2021/09/24 10:18:49;;;;;;;9.18;2.60;;;21.20;42.20;;;;;;4970778;28;20034;-58
2021/09/24 10:21:15;;;;;;;10.93;3.15;;;21.00;43.20;;;;;;5016031;28;20036;-58
2021/09/24 10:23:43;;;;;;;12.63;2.75;;;21.00;44.20;;;;;;5015614;28;20108;-56
2021/09/24 10:26:15;;;;;;;11.95;2.67;;;20.80;44.60;;;;;;5015767;28;20116;-58
2021/09/24 10:28:42;;;;;;;7.43;2.00;;;20.90;45.10;;;;;;5015679;28;20084;-58
2021/09/24 10:31:17;;;;;;;10.20;2.40;;;20.80;45.50;;;;;;5014542;28;20030;-56
2021/09/24 10:33:52;;;;;;;9.07;2.20;;;20.80;45.60;;;;;;5015655;28;20029;-58
2021/09/24 10:36:49;;;;;;;10.63;2.80;;;20.50;46.50;;;;;;5015631;28;20052;-58
2021/09/24 10:39:30;;;;;;;8.85;2.40;;;20.40;47.70;;;;;;5015479;28;20041;-58
2021/09/24 10:42:17;;;;;;;10.00;2.45;;;20.40;49.30;;;;;;5015592;28;20076;-58
2021/09/24 10:45:03;;;;;;;8.27;2.42;;;20.40;49.00;;;;;;5014420;28;20437;-56
2021/09/24 10:47:52;;;;;;;10.68;1.95;;;20.70;49.90;;;;;;5028726;28;20495;-58
2021/09/24 10:50:33;;;;;;;11.60;2.95;;;20.80;50.20;;;;;;5035251;28;20087;-55
2021/09/24 10:53:19;;;;;;;13.85;2.65;;;20.90;49.10;;;;;;5034756;28;20128;-56
2021/09/24 10:55:46;;;;;;;;;;;21.00;48.50;;;;;;5035517;28;20097;-57
2021/09/24 10:58:16;;;;;;;12.85;3.13;;;21.00;48.70;;;;;;5034950;28;20013;-58
2021/09/24 11:00:46;;;;;;;10.95;2.78;;;20.80;48.80;;;;;;5034192;28;20021;-58
2021/09/24 11:03:16;;;;;;;7.95;2.25;;;20.70;49.20;;;;;;5034700;28;20033;-58
2021/09/24 11:06:02;;;;;;;8.98;2.30;;;20.70;51.70;;;;;;5027790;28;20030;-58
2021/09/24 11:08:33;;;;;;;12.35;2.72;;;20.60;51.30;;;;;;5033304;28;20032;-58
2021/09/24 11:11:05;;;;;;;11.70;2.85;;;20.50;52.50;;;;;;5034111;28;20144;-55
2021/09/24 11:13:34;;;;;;;6.22;2.10;;;20.30;52.80;;;;;;5028455;28;20469;-56
2021/09/24 11:16:17;;;;;;;11.73;2.55;;;20.20;53.50;;;;;;5033461;28;20045;-56
2021/09/24 11:18:57;;;;;;;12.70;2.47;;;20.00;55.90;;;;;;5033672;28;20389;-55
2021/09/24 11:21:30;;;;;;;10.60;2.75;;;19.70;57.70;;;;;;5034626;28;20029;-58
2021/09/24 11:23:58;;;;;;;7.93;2.53;;;19.60;57.90;;;;;;5034266;28;20085;-57
2021/09/24 11:26:30;;;;;;;7.72;2.00;;;19.60;59.40;;;;;;5034395;28;20030;-57
2021/09/24 11:29:10;;;;;;;9.60;2.75;;;19.70;60.40;;;;;;5033410;28;20436;-58
2021/09/24 11:31:53;;;;;;;9.20;2.55;;;19.50;62.30;;;;;;5034436;28;20017;-58
2021/09/24 11:34:46;;;;;;;10.15;2.50;;;19.50;63.70;;;;;;5034151;28;20060;-58
2021/09/24 11:37:23;;;;;;;6.05;2.08;;;19.40;63.90;;;;;;5030608;28;20072;-58
2021/09/24 11:39:56;;;;;;;5.97;2.60;;;19.30;66.10;;;;;;5033780;28;20029;-57
2021/09/24 11:42:23;;;;;;;7.70;2.08;;;19.20;64.90;;;;;;5034089;28;20035;-57
2021/09/24 11:44:51;;;;;;;6.65;1.95;;;19.10;64.30;;;;;;5032923;28;20029;-57
2021/09/24 11:47:19;;;;;;;6.72;2.00;;;19.00;66.80;;;;;;5025361;28;20026;-57
2021/09/24 11:50:04;;;;;;;8.27;2.30;;;18.80;68.90;;;;;;5014144;28;20053;-54
2021/09/24 11:52:51;;;;;;;7.18;2.17;;;18.70;71.80;;;;;;5014176;28;20051;-54
2021/09/24 11:55:19;;;;;;;8.65;2.00;;;18.60;73.90;;;;;;5013872;28;20021;-54
2021/09/24 11:58:15;;;;;;;5.93;1.92;;;18.60;71.10;;;;;;5013180;28;20017;-57
2021/09/24 12:00:49;;;;;;;11.73;1.93;;;18.70;74.50;;;;;;5013189;28;20030;-57
2021/09/24 12:03:25;;;;;;;7.20;1.77;;;18.70;71.70;;;;;;5014261;28;20021;-57
2021/09/24 12:06:04;;;;;;;7.30;2.00;;;18.80;72.80;;;;;;5013624;28;20050;-57
2021/09/24 12:08:39;;;;;;;5.72;1.67;;;18.80;79.50;;;;;;5013962;28;20022;-54
2021/09/24 12:11:08;;;;;;;5.22;1.52;;;18.60;75.20;;;;;;5013729;28;20437;-54
2021/09/24 12:13:38;;;;;;;7.20;1.40;;;18.60;75.30;;;;;;5015200;28;20030;-57
2021/09/24 12:16:05;;;;;;;6.32;1.50;;;18.60;78.40;;;;;;5032378;28;20029;-53
2021/09/24 12:18:58;;;;;;;5.32;1.85;;;18.50;81.60;;;;;;5033572;28;20025;-56
2021/09/24 12:21:48;;;;;;;7.43;2.05;;;18.40;86.40;;;;;;5033613;28;20032;-55
2021/09/24 12:24:33;;;;;;;5.82;1.60;;;18.20;88.80;;;;;;5033247;28;20021;-55
2021/09/24 12:27:14;;;;;;;5.80;1.60;;;18.20;90.10;;;;;;5033240;28;20057;-56
2021/09/24 12:29:42;;;;;;;4.95;1.73;;;18.20;87.30;;;;;;5032318;28;20029;-56
2021/09/24 12:32:14;;;;;;;3.95;1.88;;;18.20;88.30;;;;;;5033320;28;20512;-58
2021/09/24 12:34:39;;;;;;;4.00;1.20;;;18.20;89.30;;;;;;5033130;28;20090;-58
2021/09/24 12:37:06;;;;;;;4.30;1.42;;;18.10;90.00;;;;;;5033147;28;20124;-56
2021/09/24 12:39:35;;;;;;;8.07;2.15;;;18.10;90.30;;;;;;5033142;28;20543;-55
2021/09/24 12:42:10;;;;;;;5.10;1.42;;;18.20;91.40;;;;;;5032973;28;20038;-53